Bremerton, WA

11:19 AM PDT on October 25, 2014 (GMT -0700)
Sunset Illahee | Change Station
CLOSE
Current Station
Personal Weather Station
Location: Bremerton, WA
Elevation: 325 ft
Nearby Weather Stations
Active Advisory: Wind Advisory

Elev 325 ft 47.61 °N, 122.61 °W | Updated 3 minutes ago

Mostly Cloudy
Mostly Cloudy
52.9 °F
Feels Like 52.9 °F
N
2.7
Wind Variable Wind from NNE

Today
High -- | Low -- °F
--% Chance of Precip.
Yesterday
High -- | Low -- °F
Precip. -- in
7:44 AM 6:04 PM
Waxing Crescent, 4% visible
Pressure 29.47 in
Visibility 10.0 miles
Clouds Few 5000 ft
Few 9000 ft
Dew Point 53 °F
Humidity 99%
Rainfall 0.05 in
Snow Depth Not available.
UV 2 out of 12
Pollen .40 out of 12
Air Quality Not available.
Flu Activity Sporadic
METAR KPWT 251815Z AUTO 00000KT 10SM FEW050 FEW090 11/11 A2947 RMK AO1

More Conditions Fewer Conditions

Pressure 29.47 in
Visibility 10.0 miles
Clouds Few 5000 ft
Few 9000 ft
Dew Point 53 °F
Humidity 99%
Rainfall 0.05 in
Snow Depth Not available.
UV 2 out of 12
Pollen .40 out of 12
Air Quality Not available.
Flu Activity Sporadic
METAR KPWT 251815Z AUTO 00000KT 10SM FEW050 FEW090 11/11 A2947 RMK AO1

More Conditions Fewer Conditions

10-Day Weather Forecast

Almanac

Astronomy

Oct. 25, 2014 Rise Set
Actual Time 7:44 AM PDT 6:04 PM PDT
Civil Twilight 7:12 AM PDT 6:35 PM PDT
Nautical Twilight 6:36 AM PDT 7:11 PM PDT
Astronomical Twilight 6:00 AM PDT 7:47 PM PDT
Moon 9:34 AM PDT 7:24 PM PDT
Length of Visible Light 11h 23m
Length of Day
10h 20m
Tomorrow will be 3m 12s shorter.
Waxing Crescent, 4% of the Moon is Illuminated
Today
Waxing Crescent
Oct 30
First Quarter
Nov 6
Full
Nov 14
Last Quarter
Nov 22
New

Today's Extremes

State Highs State Lows

Community

WunderPhotos

Upload Photos

1,764,928 photos uploaded!

Nearby

Snow Depth

Station Depth Elevation
Dungeness 1 in 4100 ft
Waterhole 2 in 5000 ft
Alpine Meadows 0 in 3500 ft
Skookum Creek 0 in 3920 ft
Mount Gardner 0 in 3000 ft

Earthquake Activity

City Distance Mag. Time & Date
Birch Bay, Washington 84 miles 2.8 3:02 AM PDT
2014-10-24
Minimum magnitude displayed is 2.5.

Coastal Water Temperatures

Place Temperature
Port Townsend, WA 52.0 °F
Seattle, WA 55.0 °F
Friday Harbor, WA 51.1 °F
Tacoma, WA 54.0 °F

Nearby Weather Stations